Record high temperature 44.9°C Record low temperature -0.3°C Record high gust 85.1 km/h Record high average 77.7 km/h Record daily rain 109.1 mm Record low windchill -4.5°C Record high barometer 1043.6 hPa Record low barometer 978.0 hPa
Daily high pressure 1016.6 mb Daily low pressure 1013.9 mb Daily low windchill 19.5°C Daily high heat index 26.9°C Daily high gust speed 46.3 kmh ENE Daily high average speed 24.4 kmh NNE
Estación de MeteoMurcia.com -------- Murcia-Puente Tocinos
Ultima grabación a: 22:10 Data: 28 May 2017, time of next update: 22:20
Tiempo actualClear/Night Temperatura actual22.2°C (72.0°F) (Indice de Calor22.2°C ), Temperatura aparente 21.2°C
Temperatura máxima (desde medianoche)27.6°C at: 15:59 Temperatura mínima (desde medianoche)19.5°C at: 07:17
Velocidad media del viento (diez minutos)11.1 kmh (6.0 kts) Dirección del viento (diez minutos)NE (38°)
Indice de Calor22.2°C ráfagas maxima (última hora)23.3 kmh (12.6 kts) at: 22:00
ráfagas maxima (desde medianoche)46.3 kmh (25.0 kts) at: 16:01 Maximo media de un minuto (desde medianoche)24.4 kmh (13.2 kts) at: 15:17
Lluvia (última hora)0.0 mm Lluvia (desde medianoche)0.0 mm (0.00 in.)---
Lluvia Este mes 0.0 mm (0.00 in.) Lluvia Hasta la fecha este año128.7 mm (5.07 in.)
Lluvia máxima por minuto (última hora)0.0 mm/min Lluvia maxima por hora (últimas 6 horas)0.0 mm/hora
Lluvia de ayer 0.0 mm Punto de rocío 13.0°C (Wet Bulb :16.9°C )
Humedad 56 %, Humidex 25.0°C Barómetro corregido a msl1015.4 mb
cambio de presión0.1 mb (última hora) Tendencia (últimas 1 hora)ESTACIONARIO
cambio de presión (últimas 12 horas)-1.1 mb cambio de presión (últimas 6 horas)+1.4 mb
Current Temp. Interna 29.4°C
Current Hum. Interna 37%


Última imagen cámara web


Weather report/warning/Metars

Alicante / El Altet, Spain (LEAL) 38-17N 000-33W 31M
May 28, 2017 - 03:30 PM EDT / 2017.05.28 1930 UTC
Wind: from the ENE (060 degrees) at 13 MPH (11 KT):0
Visibility: greater than 7 mile(s):0
Temperature: 73 F (23 C)
Dew Point: 55 F (13 C)
Relative Humidity: 53%
Pressure (altimeter): 30.03 in. Hg (1017 hPa)
ob: LEAL 281930Z 06011KT CAVOK 23/13 Q1017 NOSIG
cycle: 19
Murcia / San Javier, Spain (LELC) 37-47N 000-48W 3M
May 28, 2017 - 03:30 PM EDT / 2017.05.28 1930 UTC
Wind: from the NNE (030 degrees) at 14 MPH (12 KT):0
Visibility: greater than 7 mile(s):0
Temperature: 71 F (22 C)
Dew Point: 60 F (16 C)
Relative Humidity: 68%
Pressure (altimeter): 30.00 in. Hg (1016 hPa)
ob: LELC 281930Z 03012KT CAVOK 22/16 Q1016 NOSIG
cycle: 19
Murcia / Alcantarilla, Spain (LERI) 37-57N 001-14W 75M
May 28, 2017 - 02:00 PM EDT / 2017.05.28 1800 UTC
Wind: from the E (090 degrees) at 14 MPH (12 KT):0
Visibility: greater than 7 mile(s):0
Temperature: 75 F (24 C)
Dew Point: 53 F (12 C)
Relative Humidity: 46%
Pressure (altimeter): 30.00 in. Hg (1016 hPa)
ob: LERI 281800Z 09012KT CAVOK 24/12 Q1016 NOSIG
cycle: 18
Gerona / Costa Brava, Spain (LEGE) 41-54N 002-46E 129M
May 28, 2017 - 03:30 PM EDT / 2017.05.28 1930 UTC
Wind: from the SW (220 degrees) at 3 MPH (3 KT) (direction variable):0
Visibility: greater than 7 mile(s):0
Temperature: 68 F (20 C)
Dew Point: 51 F (11 C)
Relative Humidity: 56%
Pressure (altimeter): 30.06 in. Hg (1018 hPa)
ob: LEGE 281930Z 22003KT 190V250 CAVOK 20/11 Q1018
cycle: 19
Madri-Colmenar, Spain (LECV) 40-39N 003-44W
May 28, 2017 - 02:00 PM EDT / 2017.05.28 1800 UTC
Wind: from the N (350 degrees) at 5 MPH (4 KT):0
Visibility: greater than 7 mile(s):0
Sky conditions: partly cloudy
Weather: Towering cumulus clouds observed
Temperature: 71 F (22 C)
Dew Point: 42 F (6 C)
Relative Humidity: 35%
Pressure (altimeter): 30.03 in. Hg (1017 hPa)
ob: LECV 281800Z 35004KT 9999 FEW040TCU SCT060 22/06 Q1017
cycle: 18
Asturias / Aviles, Spain (LEAS) 43-33N 006-02W 130M
May 28, 2017 - 03:30 PM EDT / 2017.05.28 1930 UTC
Wind: Variable at 2 MPH (2 KT):0
Visibility: 4 mile(s):0
Sky conditions: mostly cloudy
Weather: Cumulonimbus clouds, towering cumulus clouds observed
Temperature: 59 F (15 C)
Dew Point: 59 F (15 C)
Relative Humidity: 100%
Pressure (altimeter): 30.00 in. Hg (1016 hPa)
ob: LEAS 281930Z VRB02KT 8000 FEW002 BKN004 SCT028TCU 15/15 Q1016 TEMPO TSRA SCT025CB TEMPO 0600 BCFG BKN002
cycle: 19
Almeria / Aeropuerto, Spain (LEAM) 36-51N 002-23W 21M
May 28, 2017 - 03:30 PM EDT / 2017.05.28 1930 UTC
Wind: from the SW (220 degrees) at 10 MPH (9 KT) (direction variable):0
Visibility: greater than 7 mile(s):0
Sky conditions: mostly clear
Temperature: 71 F (22 C)
Dew Point: 62 F (17 C)
Relative Humidity: 73%
Pressure (altimeter): 30.00 in. Hg (1016 hPa)
ob: LEAM 281930Z 22009KT 190V260 9999 FEW030 22/17 Q1016
cycle: 19
Pamplona / Noain, Spain (LEPP) 42-46N 001-38W 453M
May 28, 2017 - 03:30 PM EDT / 2017.05.28 1930 UTC
Wind: from the E (090 degrees) at 6 MPH (5 KT) (direction variable):0
Visibility: greater than 7 mile(s):0
Temperature: 78 F (26 C)
Dew Point: 50 F (10 C)
Relative Humidity: 36%
Pressure (altimeter): 29.97 in. Hg (1015 hPa)
ob: LEPP 281930Z 09005KT 060V160 CAVOK 26/10 Q1015
cycle: 19
Badajoz / Talavera La Real, Spain (LEBZ) 38-53N 006-49W 192M
May 28, 2017 - 03:00 PM EDT / 2017.05.28 1900 UTC
Wind: from the WSW (250 degrees) at 12 MPH (10 KT):0
Visibility: greater than 7 mile(s):0
Temperature: 78 F (26 C)
Dew Point: 50 F (10 C)
Relative Humidity: 36%
Pressure (altimeter): 29.97 in. Hg (1015 hPa)
ob: LEBZ 281900Z 25010KT CAVOK 26/10 Q1015
cycle: 19
Albacete / Los Llanos, Spain (LEAB) 38-57N 001-51W 704M
May 28, 2017 - 03:00 PM EDT / 2017.05.28 1900 UTC
Wind: from the SSE (160 degrees) at 10 MPH (9 KT) (direction variable):0
Visibility: greater than 7 mile(s):0
Temperature: 73 F (23 C)
Dew Point: 39 F (4 C)
Relative Humidity: 28%
Pressure (altimeter): 30.06 in. Hg (1018 hPa)
ob: LEAB 281900Z 16009KT 120V190 CAVOK 23/04 Q1018 NOSIG
cycle: 19



La informacion se graba a intervalos de 2 minutos, pero hay info grabada cada minuto. Optimizado para 800*600 y Color verdadero. Use el boton de

Use the RECARGA en su navegador para recojer la ulima info.

Clicar aquí para regarga diaria de medias/extremas del mes














Created by "Weather Display" software version 10.37S at this start time/date 11:14:53 21/05/2017

La estación de MeteoMurcia.com, publica sus datos en los siguientes proyectos:

Meteoclimatic www.awekas.at

W3Counter
Web Analytics